createdAt,value
2022-09-20T00:00:21.886Z,1.30
2022-09-20T00:02:52.543Z,1.90
2022-09-20T00:05:23.208Z,1.80
2022-09-20T00:07:53.987Z,1.90
2022-09-20T00:10:24.613Z,2.60
2022-09-20T00:12:55.277Z,1.80
2022-09-20T00:15:25.974Z,1.30
2022-09-20T00:17:56.759Z,1.20
2022-09-20T00:20:27.785Z,2.00
2022-09-20T00:22:58.459Z,2.60
2022-09-20T00:25:29.821Z,1.70
2022-09-20T00:28:00.522Z,1.20
2022-09-20T00:30:31.483Z,1.90
2022-09-20T00:33:02.292Z,1.20
2022-09-20T00:35:33.270Z,3.30
2022-09-20T00:38:03.946Z,0.40
2022-09-20T00:40:34.594Z,2.00
2022-09-20T00:43:05.478Z,2.90
2022-09-20T00:45:36.331Z,1.40
2022-09-20T00:48:14.668Z,3.70
2022-09-20T00:50:48.258Z,2.60
2022-09-20T00:53:24.135Z,2.40
2022-09-20T00:55:57.954Z,2.40
2022-09-20T00:58:33.860Z,1.80
2022-09-20T01:01:05.695Z,2.50
2022-09-20T01:03:38.378Z,1.30
2022-09-20T01:06:13.006Z,2.60
2022-09-20T01:08:47.456Z,2.10
2022-09-20T01:11:18.174Z,3.00
2022-09-20T01:13:48.954Z,2.70
2022-09-20T01:16:21.640Z,2.80
2022-09-20T01:18:53.377Z,3.30
2022-09-20T01:21:24.730Z,2.30
2022-09-20T01:24:04.922Z,1.60
2022-09-20T01:27:08.769Z,1.10
2022-09-20T01:29:54.052Z,2.80
2022-09-20T01:32:32.258Z,1.50
2022-09-20T01:35:03.629Z,1.20
2022-09-20T01:37:45.182Z,1.70
2022-09-20T01:40:27.072Z,3.20
2022-09-20T01:43:06.534Z,1.80
2022-09-20T01:45:41.186Z,1.70
2022-09-20T01:48:25.927Z,1.40
2022-09-20T01:51:31.479Z,2.00
2022-09-20T01:54:22.683Z,2.80
2022-09-20T01:57:27.354Z,2.00
2022-09-20T02:00:19.637Z,1.60
2022-09-20T02:03:24.831Z,0.90
2022-09-20T02:06:29.362Z,1.60
2022-09-20T02:09:32.643Z,1.60
2022-09-20T02:12:18.602Z,2.90
2022-09-20T02:14:59.389Z,2.10
2022-09-20T02:17:43.250Z,2.70
2022-09-20T02:20:33.193Z,1.90
2022-09-20T02:23:22.635Z,2.50
2022-09-20T02:26:26.771Z,2.40
2022-09-20T02:29:08.331Z,1.30
2022-09-20T02:32:01.735Z,3.50
2022-09-20T02:34:52.530Z,1.90
2022-09-20T02:37:46.106Z,0.90
2022-09-20T02:40:28.240Z,1.40
2022-09-20T02:43:08.179Z,2.10
2022-09-20T02:45:47.419Z,1.60
2022-09-20T02:48:25.447Z,3.20
2022-09-20T02:51:02.255Z,1.90
2022-09-20T02:53:46.250Z,2.50
2022-09-20T02:56:26.474Z,3.40
2022-09-20T02:59:04.596Z,3.10
2022-09-20T03:01:46.393Z,1.40
2022-09-20T03:04:34.295Z,2.90
2022-09-20T03:07:13.963Z,1.10
2022-09-20T03:09:49.069Z,1.70
2022-09-20T03:12:34.874Z,3.70
2022-09-20T03:15:21.158Z,2.50
2022-09-20T03:18:03.578Z,7.20
2022-09-20T03:20:43.084Z,4.30
2022-09-20T03:23:25.135Z,4.90
2022-09-20T03:26:01.829Z,7.40
2022-09-20T03:28:49.348Z,4.20
2022-09-20T03:31:32.549Z,4.00
2022-09-20T03:34:14.148Z,3.00
2022-09-20T03:37:23.911Z,3.50
2022-09-20T03:40:16.818Z,3.70
2022-09-20T03:42:50.621Z,5.10
2022-09-20T03:46:04.324Z,5.30
2022-09-20T03:49:04.246Z,4.50
2022-09-20T03:51:46.459Z,3.50
2022-09-20T03:54:43.575Z,2.80
2022-09-20T03:57:59.791Z,3.30
2022-09-20T04:00:45.520Z,3.50
2022-09-20T04:03:36.755Z,3.60
2022-09-20T04:06:40.719Z,2.90
2022-09-20T04:09:36.381Z,5.20
2022-09-20T04:12:17.560Z,2.80
2022-09-20T04:14:55.696Z,2.80
2022-09-20T04:17:44.114Z,2.00
2022-09-20T04:20:24.304Z,2.50
2022-09-20T04:22:59.191Z,1.40
2022-09-20T04:25:37.541Z,3.30
2022-09-20T04:28:16.806Z,3.40
2022-09-20T04:30:47.943Z,3.40
2022-09-20T04:33:28.074Z,1.80
2022-09-20T04:36:30.313Z,2.60
2022-09-20T04:39:10.394Z,3.70
2022-09-20T04:42:12.318Z,4.00
2022-09-20T04:45:08.313Z,3.60
2022-09-20T04:48:30.178Z,4.60
2022-09-20T04:51:33.394Z,11.80
2022-09-20T04:54:46.173Z,10.60
2022-09-20T04:57:41.406Z,6.00
2022-09-20T05:00:14.825Z,5.70
2022-09-20T05:03:23.425Z,9.40
2022-09-20T05:09:21.140Z,6.80
2022-09-20T05:12:18.659Z,4.40
2022-09-20T05:15:12.793Z,4.90
2022-09-20T05:18:04.344Z,5.00
2022-09-20T05:20:54.019Z,6.40
2022-09-20T05:23:53.763Z,3.20
2022-09-20T05:26:38.937Z,7.00
2022-09-20T05:29:16.040Z,3.50
2022-09-20T05:31:54.552Z,4.10
2022-09-20T05:34:34.537Z,4.20
2022-09-20T05:37:18.142Z,5.70
2022-09-20T05:39:55.596Z,9.90
2022-09-20T05:42:40.161Z,8.10
2022-09-20T05:48:00.626Z,5.90
2022-09-20T05:50:46.441Z,5.80
2022-09-20T05:53:54.353Z,4.50
2022-09-20T05:56:38.590Z,4.70
2022-09-20T05:59:35.785Z,7.40
2022-09-20T06:02:21.938Z,6.70
2022-09-20T06:05:01.495Z,4.90
2022-09-20T06:07:46.076Z,5.40
2022-09-20T06:13:01.759Z,5.70
2022-09-20T06:15:44.857Z,5.80
2022-09-20T06:18:27.730Z,5.60
2022-09-20T06:21:06.962Z,6.50
2022-09-20T06:23:38.564Z,7.00
2022-09-20T06:26:17.415Z,5.90
2022-09-20T06:28:55.210Z,7.30
2022-09-20T06:31:28.551Z,7.50
2022-09-20T06:34:04.489Z,6.70
2022-09-20T06:37:00.370Z,7.80
2022-09-20T06:39:59.913Z,8.10
2022-09-20T06:42:30.933Z,10.50
2022-09-20T06:45:01.544Z,7.80
2022-09-20T06:47:35.652Z,8.30
2022-09-20T06:50:15.798Z,9.40
2022-09-20T06:52:47.492Z,8.10
2022-09-20T06:55:26.124Z,5.10
2022-09-20T06:57:59.916Z,6.10
2022-09-20T07:00:30.884Z,7.10
2022-09-20T07:03:01.569Z,5.80
2022-09-20T07:05:32.702Z,4.70
2022-09-20T07:08:04.244Z,5.90
2022-09-20T07:10:35.531Z,5.00
2022-09-20T07:13:06.719Z,6.10
2022-09-20T07:15:37.908Z,5.30
2022-09-20T07:18:09.554Z,3.20
2022-09-20T07:20:41.782Z,9.00
2022-09-20T07:23:12.459Z,4.60
2022-09-20T07:25:43.206Z,4.80
2022-09-20T07:28:13.779Z,8.20
2022-09-20T07:30:44.466Z,6.40
2022-09-20T07:33:19.480Z,8.90
2022-09-20T07:35:51.122Z,7.60
2022-09-20T07:38:22.318Z,4.80
2022-09-20T07:40:59.719Z,9.70
2022-09-20T07:43:30.802Z,7.70
2022-09-20T07:46:01.614Z,8.70
2022-09-20T07:48:34.358Z,8.30
2022-09-20T07:51:09.034Z,7.80
2022-09-20T07:53:40.220Z,8.00
2022-09-20T07:56:14.264Z,7.10
2022-09-20T07:58:50.076Z,11.90
2022-09-20T08:01:23.602Z,8.00
2022-09-20T08:03:54.869Z,7.10
2022-09-20T08:06:26.964Z,9.10
2022-09-20T08:08:58.192Z,7.60
2022-09-20T08:11:30.297Z,8.70
2022-09-20T08:14:06.677Z,8.30
2022-09-20T08:16:42.831Z,6.60
2022-09-20T08:19:18.263Z,9.10
2022-09-20T08:21:49.892Z,6.80
2022-09-20T08:24:20.831Z,11.00
2022-09-20T08:26:51.710Z,6.60
2022-09-20T08:29:22.405Z,5.80
2022-09-20T08:31:55.724Z,5.10
2022-09-20T08:34:26.799Z,6.20
2022-09-20T08:36:57.496Z,6.60
2022-09-20T08:44:58.656Z,4.90
2022-09-20T08:47:32.115Z,7.20
2022-09-20T08:50:17.258Z,4.50
2022-09-20T08:52:50.854Z,5.00
2022-09-20T08:55:26.184Z,3.90
2022-09-20T08:57:58.761Z,4.50
2022-09-20T09:00:33.737Z,3.90
2022-09-20T09:03:08.223Z,3.40
2022-09-20T09:05:44.345Z,3.60
2022-09-20T09:08:17.093Z,4.10
2022-09-20T09:10:54.908Z,8.30
2022-09-20T09:13:32.911Z,4.80
2022-09-20T09:16:07.733Z,3.90
2022-09-20T09:18:42.495Z,6.20
2022-09-20T09:21:21.578Z,5.20
2022-09-20T09:23:58.408Z,5.10
2022-09-20T09:26:30.228Z,3.60
2022-09-20T09:29:21.477Z,3.50
2022-09-20T09:31:55.032Z,5.40
2022-09-20T09:34:28.772Z,5.90
2022-09-20T09:37:00.242Z,5.50
2022-09-20T09:39:32.365Z,3.30
2022-09-20T09:42:20.501Z,4.10
2022-09-20T09:44:51.283Z,5.30
2022-09-20T09:47:29.335Z,3.90
2022-09-20T09:50:06.091Z,6.60
2022-09-20T09:52:39.698Z,3.20
2022-09-20T09:55:15.227Z,4.30
2022-09-20T09:57:56.016Z,4.60
2022-09-20T10:00:28.857Z,4.40
2022-09-20T10:03:21.134Z,5.20
2022-09-20T10:06:08.582Z,3.60
2022-09-20T10:08:51.138Z,6.90
2022-09-20T10:11:31.911Z,6.90
2022-09-20T10:14:17.148Z,3.20
2022-09-20T10:17:06.922Z,3.60
2022-09-20T10:19:47.844Z,6.40
2022-09-20T10:22:31.242Z,5.00
2022-09-20T10:25:13.161Z,2.80
2022-09-20T10:27:58.254Z,2.90
2022-09-20T10:30:36.985Z,3.10
2022-09-20T10:33:19.507Z,4.90
2022-09-20T10:36:02.731Z,4.30
2022-09-20T10:38:38.885Z,3.60
2022-09-20T10:41:50.956Z,2.70
2022-09-20T10:44:46.477Z,4.20
2022-09-20T10:47:20.269Z,3.00
2022-09-20T10:50:05.644Z,3.10
2022-09-20T10:52:51.994Z,1.80
2022-09-20T10:55:35.999Z,0.90
2022-09-20T10:58:41.930Z,1.80
2022-09-20T11:01:21.010Z,3.60
2022-09-20T11:04:27.401Z,1.00
2022-09-20T11:07:11.415Z,2.30
2022-09-20T11:09:48.769Z,0.90
2022-09-20T11:12:27.007Z,1.50
2022-09-20T11:15:00.970Z,4.10
2022-09-20T11:17:36.462Z,2.50
2022-09-20T11:20:17.050Z,4.40
2022-09-20T11:22:53.806Z,4.00
2022-09-20T11:25:32.147Z,12.00
2022-09-20T11:28:11.161Z,5.10
2022-09-20T11:30:50.137Z,1.80
2022-09-20T11:33:26.647Z,2.20
2022-09-20T11:36:00.674Z,2.00
2022-09-20T11:38:42.200Z,1.00
2022-09-20T11:41:16.815Z,1.80
2022-09-20T11:43:48.934Z,1.90
2022-09-20T11:46:26.887Z,2.40
2022-09-20T11:49:02.914Z,2.50
2022-09-20T11:51:51.386Z,4.30
2022-09-20T11:54:43.689Z,3.90
2022-09-20T11:57:17.518Z,1.80
2022-09-20T11:59:56.380Z,3.50
2022-09-20T12:02:35.039Z,1.90
2022-09-20T12:05:07.535Z,3.70
2022-09-20T12:10:24.902Z,1.80
2022-09-20T12:13:01.347Z,2.30
2022-09-20T12:15:34.072Z,1.00
2022-09-20T12:18:37.519Z,2.50
2022-09-20T12:21:17.319Z,1.90
2022-09-20T12:24:19.332Z,2.40
2022-09-20T12:26:52.014Z,2.60
2022-09-20T12:29:53.117Z,3.20
2022-09-20T12:33:02.586Z,2.20
2022-09-20T12:36:15.086Z,2.00
2022-09-20T12:38:58.702Z,2.60
2022-09-20T12:41:30.187Z,3.40
2022-09-20T12:44:06.059Z,3.70
2022-09-20T12:46:41.483Z,1.70
2022-09-20T12:49:48.329Z,2.10
2022-09-20T12:52:56.917Z,3.20
2022-09-20T12:55:46.137Z,3.60
2022-09-20T12:58:49.119Z,1.60
2022-09-20T13:01:40.231Z,2.00
2022-09-20T13:04:55.530Z,1.70
2022-09-20T13:07:48.958Z,5.30
2022-09-20T13:10:34.859Z,3.90
2022-09-20T13:13:13.489Z,2.10
2022-09-20T13:15:53.518Z,1.60
2022-09-20T13:18:26.385Z,2.90
2022-09-20T13:21:00.338Z,1.60
2022-09-20T13:23:34.134Z,2.50
2022-09-20T13:26:10.483Z,2.40
2022-09-20T13:28:47.075Z,3.60
2022-09-20T13:31:28.441Z,5.80
2022-09-20T13:34:15.587Z,2.30
2022-09-20T13:36:46.873Z,3.10
2022-09-20T13:39:37.387Z,2.10
2022-09-20T13:42:19.978Z,2.30
2022-09-20T13:44:51.183Z,2.40
2022-09-20T13:47:30.041Z,0.90
2022-09-20T13:50:17.117Z,1.90
2022-09-20T13:52:50.334Z,1.80
2022-09-20T13:55:33.828Z,0.50
2022-09-20T13:58:07.442Z,1.70
2022-09-20T14:00:38.956Z,0.50
2022-09-20T14:03:17.371Z,0.80
2022-09-20T14:05:52.687Z,0.30
2022-09-20T14:08:27.714Z,0.60
2022-09-20T14:11:09.568Z,0.20
2022-09-20T14:13:43.106Z,0.30
2022-09-20T14:16:15.318Z,0.40
2022-09-20T14:18:48.290Z,0.60
2022-09-20T14:21:25.475Z,0.40
2022-09-20T14:23:59.808Z,1.10
2022-09-20T14:26:36.264Z,2.40
2022-09-20T14:29:39.973Z,1.20
2022-09-20T14:32:23.031Z,1.30
2022-09-20T14:35:02.559Z,1.40
2022-09-20T14:37:36.419Z,0.80
2022-09-20T14:40:18.796Z,0.60
2022-09-20T14:42:51.969Z,0.50
2022-09-20T14:45:30.903Z,0.80
2022-09-20T14:48:10.332Z,2.90
2022-09-20T14:50:43.379Z,0.50
2022-09-20T14:56:12.641Z,0.50
2022-09-20T14:59:21.552Z,0.80
2022-09-20T15:02:02.962Z,1.00
2022-09-20T15:04:35.758Z,1.80
2022-09-20T15:07:10.617Z,0.80
2022-09-20T15:09:41.585Z,1.60
2022-09-20T15:12:16.664Z,0.40
2022-09-20T15:14:47.768Z,1.70
2022-09-20T15:17:20.299Z,1.00
2022-09-20T15:19:51.918Z,0.90
2022-09-20T15:22:22.583Z,1.50
2022-09-20T15:24:53.310Z,1.60
2022-09-20T15:27:28.206Z,1.00
2022-09-20T15:29:59.323Z,1.00
2022-09-20T15:32:29.962Z,1.70
2022-09-20T15:35:00.581Z,2.20
2022-09-20T15:37:31.204Z,2.00
2022-09-20T15:40:03.036Z,1.00
2022-09-20T15:42:38.192Z,1.10
2022-09-20T15:45:13.287Z,1.40
2022-09-20T15:47:44.365Z,1.50
2022-09-20T15:50:14.975Z,1.50
2022-09-20T15:52:47.255Z,1.50
2022-09-20T15:55:18.597Z,1.00
2022-09-20T15:57:49.803Z,1.80
2022-09-20T16:00:20.942Z,1.00
2022-09-20T16:02:52.674Z,0.90
2022-09-20T16:05:23.289Z,1.80
2022-09-20T16:07:53.908Z,0.90
2022-09-20T16:10:24.577Z,1.90
2022-09-20T16:12:55.186Z,1.40
2022-09-20T16:15:25.818Z,1.80
2022-09-20T16:18:14.455Z,1.10
2022-09-20T16:20:45.314Z,1.80
2022-09-20T16:23:17.679Z,4.10
2022-09-20T16:25:50.538Z,2.30
2022-09-20T16:28:21.288Z,2.60
2022-09-20T16:30:59.944Z,1.80
2022-09-20T16:33:33.312Z,3.60
2022-09-20T16:36:04.369Z,2.10
2022-09-20T16:38:35.118Z,1.60
2022-09-20T16:41:06.160Z,4.20
2022-09-20T16:43:37.154Z,1.10
2022-09-20T16:46:10.431Z,2.40
2022-09-20T16:48:42.607Z,1.20
2022-09-20T16:51:13.491Z,2.80
2022-09-20T16:53:45.144Z,2.20
2022-09-20T16:56:22.882Z,5.70
2022-09-20T16:58:53.928Z,2.40
2022-09-20T17:01:24.813Z,4.00
2022-09-20T17:03:56.838Z,3.90
2022-09-20T17:06:28.926Z,2.20
2022-09-20T17:09:00.923Z,2.00
2022-09-20T17:11:33.928Z,3.20
2022-09-20T17:14:05.389Z,2.80
2022-09-20T17:16:37.805Z,1.30
2022-09-20T17:24:10.525Z,0.90
2022-09-20T17:26:43.539Z,0.60
2022-09-20T17:29:16.932Z,0.40
2022-09-20T17:31:55.206Z,0.80
2022-09-20T17:34:30.020Z,1.30
2022-09-20T17:37:01.664Z,0.70
2022-09-20T17:39:32.433Z,2.30
2022-09-20T17:42:03.194Z,5.40
2022-09-20T17:44:36.760Z,2.80
2022-09-20T17:47:08.167Z,0.90
2022-09-20T17:49:40.623Z,1.10
2022-09-20T17:52:11.328Z,8.10
2022-09-20T17:54:42.298Z,1.60
2022-09-20T17:57:12.930Z,1.00
2022-09-20T17:59:46.247Z,2.40
2022-09-20T18:02:16.824Z,1.80
2022-09-20T18:04:47.462Z,3.90
2022-09-20T18:07:18.218Z,2.50
2022-09-20T18:09:51.177Z,1.20
2022-09-20T18:12:21.885Z,2.70
2022-09-20T18:14:53.801Z,1.50
2022-09-20T18:17:24.426Z,2.10
2022-09-20T18:19:55.063Z,2.70
2022-09-20T18:22:25.742Z,1.40
2022-09-20T18:24:56.367Z,1.80
2022-09-20T18:27:27.183Z,1.90
2022-09-20T18:29:57.769Z,1.90
2022-09-20T18:32:30.495Z,7.60
2022-09-20T18:35:01.870Z,9.90
2022-09-20T18:37:32.435Z,2.10
2022-09-20T18:40:03.394Z,3.00
2022-09-20T18:42:34.799Z,4.50
2022-09-20T18:45:06.168Z,9.50
2022-09-20T18:47:36.773Z,3.20
2022-09-20T18:50:10.424Z,1.40
2022-09-20T18:52:41.118Z,1.60
2022-09-20T18:55:14.058Z,1.90
2022-09-20T18:57:45.934Z,2.80
2022-09-20T19:00:18.463Z,2.40
2022-09-20T19:05:33.130Z,2.10
2022-09-20T19:08:20.898Z,3.30
2022-09-20T19:10:55.221Z,2.60
2022-09-20T19:13:45.033Z,3.20
2022-09-20T19:16:20.777Z,3.20
2022-09-20T19:19:06.733Z,3.50
2022-09-20T19:21:46.850Z,3.30
2022-09-20T19:24:29.794Z,4.20
2022-09-20T19:27:01.013Z,5.30
2022-09-20T19:29:33.259Z,3.00
2022-09-20T19:32:06.143Z,3.00
2022-09-20T19:34:38.072Z,3.10
2022-09-20T19:37:25.902Z,4.50
2022-09-20T19:40:09.118Z,4.90
2022-09-20T19:42:55.140Z,2.20
2022-09-20T19:45:32.269Z,3.00
2022-09-20T19:48:13.917Z,4.10
2022-09-20T19:50:49.266Z,3.80
2022-09-20T19:53:26.636Z,4.20
2022-09-20T19:56:00.665Z,3.70
2022-09-20T19:58:32.718Z,2.90
2022-09-20T20:01:04.417Z,3.70
2022-09-20T20:03:36.891Z,4.40
2022-09-20T20:08:45.974Z,4.40
2022-09-20T20:11:27.068Z,3.40
2022-09-20T20:14:07.958Z,5.30
2022-09-20T20:16:51.352Z,3.50
2022-09-20T20:19:47.468Z,3.80
2022-09-20T20:22:30.907Z,3.40
2022-09-20T20:25:02.223Z,3.00
2022-09-20T20:27:32.806Z,3.90
2022-09-20T20:30:03.423Z,3.90
2022-09-20T20:32:34.218Z,3.50
2022-09-20T20:35:05.623Z,5.20
2022-09-20T20:37:39.852Z,4.20
2022-09-20T20:40:14.996Z,4.00
2022-09-20T20:42:45.862Z,5.10
2022-09-20T20:45:16.800Z,4.50
2022-09-20T20:47:48.720Z,3.90
2022-09-20T20:50:19.479Z,4.90
2022-09-20T20:52:54.936Z,5.30
2022-09-20T20:55:25.988Z,4.10
2022-09-20T20:57:58.174Z,5.80
2022-09-20T21:00:30.085Z,4.50
2022-09-20T21:03:02.818Z,5.00
2022-09-20T21:05:33.704Z,5.20
2022-09-20T21:08:04.932Z,5.40
2022-09-20T21:10:35.966Z,3.40
2022-09-20T21:13:06.736Z,3.70
2022-09-20T21:15:37.496Z,5.40
2022-09-20T21:18:08.370Z,6.40
2022-09-20T21:20:40.638Z,2.90
2022-09-20T21:23:11.350Z,5.00
2022-09-20T21:25:42.425Z,4.30
2022-09-20T21:28:13.116Z,2.80
2022-09-20T21:30:43.892Z,3.50
2022-09-20T21:33:14.504Z,3.00
2022-09-20T21:35:45.232Z,4.90
2022-09-20T21:38:16.178Z,3.30
2022-09-20T21:40:46.909Z,3.10
2022-09-20T21:43:17.748Z,2.90
2022-09-20T21:45:48.538Z,2.80
2022-09-20T21:48:19.350Z,3.70
2022-09-20T21:50:50.077Z,7.30
2022-09-20T21:53:20.946Z,2.80
2022-09-20T21:55:56.315Z,5.40
2022-09-20T21:58:27.638Z,3.30
2022-09-20T22:01:03.548Z,5.10
2022-09-20T22:03:37.197Z,4.30
2022-09-20T22:06:10.873Z,3.50
2022-09-20T22:08:43.502Z,2.90
2022-09-20T22:11:15.921Z,4.20
2022-09-20T22:13:47.968Z,2.90
2022-09-20T22:16:20.811Z,4.70
2022-09-20T22:18:52.146Z,4.40
2022-09-20T22:21:24.600Z,4.10
2022-09-20T22:23:57.554Z,4.10
2022-09-20T22:26:31.042Z,2.90
2022-09-20T22:29:02.100Z,3.30
2022-09-20T22:31:34.675Z,2.90
2022-09-20T22:34:07.511Z,3.90
2022-09-20T22:36:40.059Z,4.10
2022-09-20T22:41:42.894Z,5.50
2022-09-20T22:44:14.080Z,3.10
2022-09-20T22:46:44.843Z,2.40
2022-09-20T22:49:15.692Z,3.70
2022-09-20T22:51:46.389Z,3.70
2022-09-20T22:54:17.104Z,5.30
2022-09-20T22:56:47.692Z,2.60
2022-09-20T22:59:18.538Z,4.90
2022-09-20T23:01:49.812Z,5.30
2022-09-20T23:04:22.319Z,6.20
2022-09-20T23:09:28.555Z,3.60
2022-09-20T23:11:59.318Z,5.10
2022-09-20T23:14:30.007Z,2.60
2022-09-20T23:17:00.686Z,4.40
2022-09-20T23:19:31.434Z,3.00
2022-09-20T23:22:02.014Z,3.30
2022-09-20T23:24:32.700Z,3.70
2022-09-20T23:27:03.428Z,2.90
2022-09-20T23:29:34.121Z,3.90
2022-09-20T23:32:05.192Z,2.60
2022-09-20T23:34:36.145Z,5.10
2022-09-20T23:37:07.808Z,5.60
2022-09-20T23:39:38.710Z,4.00
2022-09-20T23:42:10.278Z,3.60
2022-09-20T23:44:40.867Z,2.80
2022-09-20T23:47:11.549Z,3.50
2022-09-20T23:49:42.224Z,5.60
2022-09-20T23:52:13.007Z,6.30
2022-09-20T23:54:43.760Z,3.50
2022-09-20T23:57:15.276Z,5.00
2022-09-20T23:59:45.975Z,3.90
